sensor_id;sensor_type;location;lat;lon;timestamp;pressure;altitude;pressure_sealevel;temperature;humidity
38852;BME280;24605;50.092;9.182;2023-07-16T00:01:22;97647.41;;;19.51;100.00
38852;BME280;24605;50.092;9.182;2023-07-16T00:03:48;97614.97;;;19.37;100.00
38852;BME280;24605;50.092;9.182;2023-07-16T00:06:15;97620.72;;;19.46;100.00
38852;BME280;24605;50.092;9.182;2023-07-16T00:08:42;97624.97;;;19.47;100.00
38852;BME280;24605;50.092;9.182;2023-07-16T00:11:09;97613.09;;;19.37;100.00
38852;BME280;24605;50.092;9.182;2023-07-16T00:13:35;97607.13;;;19.18;100.00
38852;BME280;24605;50.092;9.182;2023-07-16T00:16:03;97599.84;;;19.25;100.00
38852;BME280;24605;50.092;9.182;2023-07-16T00:18:29;97592.56;;;19.21;100.00
38852;BME280;24605;50.092;9.182;2023-07-16T00:20:56;97591.28;;;19.23;100.00
38852;BME280;24605;50.092;9.182;2023-07-16T00:23:23;97580.78;;;19.29;100.00
38852;BME280;24605;50.092;9.182;2023-07-16T00:25:51;97529.72;;;18.91;100.00
38852;BME280;24605;50.092;9.182;2023-07-16T00:28:17;97599.50;;;19.22;100.00
38852;BME280;24605;50.092;9.182;2023-07-16T00:30:44;97601.53;;;19.32;100.00
38852;BME280;24605;50.092;9.182;2023-07-16T00:33:11;97601.53;;;19.32;100.00
38852;BME280;24605;50.092;9.182;2023-07-16T00:35:37;97572.34;;;19.08;100.00
38852;BME280;24605;50.092;9.182;2023-07-16T00:38:04;97612.09;;;19.26;100.00
38852;BME280;24605;50.092;9.182;2023-07-16T00:40:30;97613.59;;;19.34;100.00
38852;BME280;24605;50.092;9.182;2023-07-16T00:42:58;97590.25;;;19.24;100.00
38852;BME280;24605;50.092;9.182;2023-07-16T00:45:24;97616.13;;;19.29;100.00
38852;BME280;24605;50.092;9.182;2023-07-16T00:47:51;97610.72;;;19.12;100.00
38852;BME280;24605;50.092;9.182;2023-07-16T00:50:18;97616.56;;;18.90;100.00
38852;BME280;24605;50.092;9.182;2023-07-16T00:52:44;97608.97;;;18.94;100.00
38852;BME280;24605;50.092;9.182;2023-07-16T00:55:11;97634.59;;;18.88;100.00
38852;BME280;24605;50.092;9.182;2023-07-16T00:57:38;97618.44;;;18.90;100.00
38852;BME280;24605;50.092;9.182;2023-07-16T01:00:07;97621.88;;;18.90;100.00
38852;BME280;24605;50.092;9.182;2023-07-16T01:02:34;97631.00;;;18.83;100.00
38852;BME280;24605;50.092;9.182;2023-07-16T01:05:01;97638.63;;;18.79;100.00
38852;BME280;24605;50.092;9.182;2023-07-16T01:07:29;97641.16;;;18.74;100.00
38852;BME280;24605;50.092;9.182;2023-07-16T01:09:57;97636.78;;;18.68;100.00
38852;BME280;24605;50.092;9.182;2023-07-16T01:12:26;97631.22;;;18.57;100.00
38852;BME280;24605;50.092;9.182;2023-07-16T01:14:54;97596.56;;;18.52;100.00
38852;BME280;24605;50.092;9.182;2023-07-16T01:17:23;97586.78;;;18.53;100.00
38852;BME280;24605;50.092;9.182;2023-07-16T01:19:50;97600.84;;;18.53;100.00
38852;BME280;24605;50.092;9.182;2023-07-16T01:22:33;97595.75;;;18.40;100.00
38852;BME280;24605;50.092;9.182;2023-07-16T01:28:28;97557.22;;;18.37;100.00
38852;BME280;24605;50.092;9.182;2023-07-16T01:31:05;97595.28;;;18.43;100.00
38852;BME280;24605;50.092;9.182;2023-07-16T01:33:33;97606.50;;;18.45;100.00
38852;BME280;24605;50.092;9.182;2023-07-16T01:36:00;97617.19;;;18.38;100.00
38852;BME280;24605;50.092;9.182;2023-07-16T01:38:28;97627.66;;;18.21;100.00
38852;BME280;24605;50.092;9.182;2023-07-16T01:40:55;97641.53;;;18.23;100.00
38852;BME280;24605;50.092;9.182;2023-07-16T01:43:21;97652.13;;;18.23;100.00
38852;BME280;24605;50.092;9.182;2023-07-16T01:45:47;97627.13;;;18.00;100.00
38852;BME280;24605;50.092;9.182;2023-07-16T01:48:24;97654.22;;;18.21;100.00
38852;BME280;24605;50.092;9.182;2023-07-16T01:50:55;97665.41;;;18.23;100.00
38852;BME280;24605;50.092;9.182;2023-07-16T01:53:20;97633.03;;;18.03;100.00
38852;BME280;24605;50.092;9.182;2023-07-16T01:55:47;97661.47;;;17.95;100.00
38852;BME280;24605;50.092;9.182;2023-07-16T01:58:13;97664.72;;;17.97;100.00
38852;BME280;24605;50.092;9.182;2023-07-16T02:00:40;97672.81;;;17.84;100.00
38852;BME280;24605;50.092;9.182;2023-07-16T02:03:06;97656.53;;;17.80;100.00
38852;BME280;24605;50.092;9.182;2023-07-16T02:05:34;97649.00;;;17.77;100.00
38852;BME280;24605;50.092;9.182;2023-07-16T02:08:00;97642.25;;;17.81;100.00
38852;BME280;24605;50.092;9.182;2023-07-16T02:10:27;97643.00;;;17.70;100.00
38852;BME280;24605;50.092;9.182;2023-07-16T02:12:53;97642.94;;;17.58;100.00
38852;BME280;24605;50.092;9.182;2023-07-16T02:15:20;97656.47;;;17.50;100.00
38852;BME280;24605;50.092;9.182;2023-07-16T02:17:47;97642.56;;;17.36;100.00
38852;BME280;24605;50.092;9.182;2023-07-16T02:20:13;97665.31;;;17.44;100.00
38852;BME280;24605;50.092;9.182;2023-07-16T02:22:41;97651.53;;;17.35;100.00
38852;BME280;24605;50.092;9.182;2023-07-16T02:25:08;97652.00;;;17.32;100.00
38852;BME280;24605;50.092;9.182;2023-07-16T02:27:34;97665.59;;;17.17;100.00
38852;BME280;24605;50.092;9.182;2023-07-16T02:30:01;97662.00;;;17.04;100.00
38852;BME280;24605;50.092;9.182;2023-07-16T02:32:27;97660.66;;;16.95;100.00
38852;BME280;24605;50.092;9.182;2023-07-16T02:34:54;97654.97;;;16.91;100.00
38852;BME280;24605;50.092;9.182;2023-07-16T02:37:20;97672.72;;;16.91;100.00
38852;BME280;24605;50.092;9.182;2023-07-16T02:39:48;97670.91;;;16.85;100.00
38852;BME280;24605;50.092;9.182;2023-07-16T02:42:14;97669.50;;;16.82;100.00
38852;BME280;24605;50.092;9.182;2023-07-16T02:44:41;97665.88;;;16.76;100.00
38852;BME280;24605;50.092;9.182;2023-07-16T02:47:10;97687.06;;;16.76;100.00
38852;BME280;24605;50.092;9.182;2023-07-16T02:49:37;97691.00;;;16.67;100.00
38852;BME280;24605;50.092;9.182;2023-07-16T02:52:04;97690.63;;;16.64;100.00
38852;BME280;24605;50.092;9.182;2023-07-16T02:54:31;97706.34;;;16.58;100.00
38852;BME280;24605;50.092;9.182;2023-07-16T02:56:59;97701.06;;;16.52;100.00
38852;BME280;24605;50.092;9.182;2023-07-16T02:59:25;97704.56;;;16.52;100.00
38852;BME280;24605;50.092;9.182;2023-07-16T03:01:51;97706.41;;;16.45;100.00
38852;BME280;24605;50.092;9.182;2023-07-16T03:04:19;97694.59;;;16.48;100.00
38852;BME280;24605;50.092;9.182;2023-07-16T03:06:45;97715.16;;;16.45;100.00
38852;BME280;24605;50.092;9.182;2023-07-16T03:09:12;97714.56;;;16.43;100.00
38852;BME280;24605;50.092;9.182;2023-07-16T03:11:38;97714.56;;;16.43;100.00
38852;BME280;24605;50.092;9.182;2023-07-16T03:14:06;97709.69;;;16.40;100.00
38852;BME280;24605;50.092;9.182;2023-07-16T03:16:32;97720.72;;;16.37;100.00
38852;BME280;24605;50.092;9.182;2023-07-16T03:18:59;97724.97;;;16.38;100.00
38852;BME280;24605;50.092;9.182;2023-07-16T03:21:25;97728.44;;;16.39;100.00
38852;BME280;24605;50.092;9.182;2023-07-16T03:23:52;97734.97;;;16.36;100.00
38852;BME280;24605;50.092;9.182;2023-07-16T03:26:18;97734.75;;;16.38;100.00
38852;BME280;24605;50.092;9.182;2023-07-16T03:28:45;97745.34;;;16.31;100.00
38852;BME280;24605;50.092;9.182;2023-07-16T03:31:12;97747.81;;;16.33;100.00
38852;BME280;24605;50.092;9.182;2023-07-16T03:33:39;97758.00;;;16.29;100.00
38852;BME280;24605;50.092;9.182;2023-07-16T03:36:05;156161.06;;;16.25;100.00
38852;BME280;24605;50.092;9.182;2023-07-16T03:38:32;156150.63;;;16.21;100.00
38852;BME280;24605;50.092;9.182;2023-07-16T03:40:59;156134.91;;;16.14;100.00
38852;BME280;24605;50.092;9.182;2023-07-16T03:43:26;156179.38;;;16.32;100.00
38852;BME280;24605;50.092;9.182;2023-07-16T03:45:52;156153.25;;;16.22;100.00
38852;BME280;24605;50.092;9.182;2023-07-16T03:48:20;156182.00;;;16.33;100.00
38852;BME280;24605;50.092;9.182;2023-07-16T03:50:46;156176.75;;;16.31;100.00
38852;BME280;24605;50.092;9.182;2023-07-16T03:53:13;156170.22;;;16.28;100.00
38852;BME280;24605;50.092;9.182;2023-07-16T03:55:39;156166.31;;;16.27;100.00
38852;BME280;24605;50.092;9.182;2023-07-16T03:58:06;156175.47;;;16.31;100.00
38852;BME280;24605;50.092;9.182;2023-07-16T04:00:32;156163.69;;;16.26;100.00
38852;BME280;24605;50.092;9.182;2023-07-16T04:02:59;156167.59;;;16.27;100.00
38852;BME280;24605;50.092;9.182;2023-07-16T04:05:26;156059.03;;;15.85;100.00
38852;BME280;24605;50.092;9.182;2023-07-16T04:07:53;156154.53;;;16.22;100.00
38852;BME280;24605;50.092;9.182;2023-07-16T04:10:19;156154.53;;;16.22;100.00
38852;BME280;24605;50.092;9.182;2023-07-16T04:12:46;156168.94;;;16.28;100.00
38852;BME280;24605;50.092;9.182;2023-07-16T04:15:12;156167.59;;;16.27;100.00
38852;BME280;24605;50.092;9.182;2023-07-16T04:17:39;156182.00;;;16.33;100.00
38852;BME280;24605;50.092;9.182;2023-07-16T04:20:06;156111.34;;;16.05;100.00
38852;BME280;24605;50.092;9.182;2023-07-16T04:22:35;156136.22;;;16.15;100.00
38852;BME280;24605;50.092;9.182;2023-07-16T04:25:01;156167.59;;;16.27;100.00
38852;BME280;24605;50.092;9.182;2023-07-16T04:27:29;156174.19;;;16.30;100.00
38852;BME280;24605;50.092;9.182;2023-07-16T04:29:55;156140.16;;;16.17;100.00
38852;BME280;24605;50.092;9.182;2023-07-16T04:32:21;156145.38;;;16.19;100.00
38852;BME280;24605;50.092;9.182;2023-07-16T04:34:48;156144.06;;;16.18;100.00
38852;BME280;24605;50.092;9.182;2023-07-16T04:37:14;156166.31;;;16.27;100.00
38852;BME280;24605;50.092;9.182;2023-07-16T04:39:42;156182.00;;;16.33;100.00
38852;BME280;24605;50.092;9.182;2023-07-16T04:42:09;156153.25;;;16.22;100.00
38852;BME280;24605;50.092;9.182;2023-07-16T04:44:35;156180.72;;;16.33;100.00
38852;BME280;24605;50.092;9.182;2023-07-16T04:47:01;156168.94;;;16.28;100.00
38852;BME280;24605;50.092;9.182;2023-07-16T04:49:28;156167.59;;;16.27;100.00
38852;BME280;24605;50.092;9.182;2023-07-16T04:51:54;156168.94;;;16.28;100.00
38852;BME280;24605;50.092;9.182;2023-07-16T04:54:21;156176.75;;;16.31;100.00
38852;BME280;24605;50.092;9.182;2023-07-16T04:56:49;156197.75;;;16.39;100.00
38852;BME280;24605;50.092;9.182;2023-07-16T04:59:15;156174.19;;;16.30;100.00
38852;BME280;24605;50.092;9.182;2023-07-16T05:01:42;156183.34;;;16.34;100.00
38852;BME280;24605;50.092;9.182;2023-07-16T05:04:08;156161.06;;;16.25;100.00
38852;BME280;24605;50.092;9.182;2023-07-16T05:06:35;156157.16;;;16.23;100.00
38852;BME280;24605;50.092;9.182;2023-07-16T05:09:01;156171.56;;;16.29;100.00
38852;BME280;24605;50.092;9.182;2023-07-16T05:11:27;156182.00;;;16.33;100.00
38852;BME280;24605;50.092;9.182;2023-07-16T05:13:55;156182.00;;;16.33;100.00
38852;BME280;24605;50.092;9.182;2023-07-16T05:16:22;156091.75;;;15.97;100.00
38852;BME280;24605;50.092;9.182;2023-07-16T05:18:48;156175.47;;;16.31;100.00
38852;BME280;24605;50.092;9.182;2023-07-16T05:21:15;156200.31;;;16.40;100.00
38852;BME280;24605;50.092;9.182;2023-07-16T05:23:41;156176.75;;;16.31;100.00
38852;BME280;24605;50.092;9.182;2023-07-16T05:26:08;156259.22;;;16.64;100.00
38852;BME280;24605;50.092;9.182;2023-07-16T05:28:34;156234.38;;;16.54;100.00
38852;BME280;24605;50.092;9.182;2023-07-16T05:31:03;156235.66;;;16.54;100.00
38852;BME280;24605;50.092;9.182;2023-07-16T05:33:29;156277.53;;;16.71;100.00
38852;BME280;24605;50.092;9.182;2023-07-16T05:35:56;156331.25;;;16.92;100.00
38852;BME280;24605;50.092;9.182;2023-07-16T05:38:22;156361.41;;;17.04;100.00
38852;BME280;24605;50.092;9.182;2023-07-16T05:40:49;156328.63;;;16.91;100.00
38852;BME280;24605;50.092;9.182;2023-07-16T05:43:16;156349.63;;;16.99;100.00
38852;BME280;24605;50.092;9.182;2023-07-16T05:45:42;156412.47;;;17.24;100.00
38852;BME280;24605;50.092;9.182;2023-07-16T05:48:10;156370.56;;;17.07;100.00
38852;BME280;24605;50.092;9.182;2023-07-16T05:50:37;156396.78;;;17.18;100.00
38852;BME280;24605;50.092;9.182;2023-07-16T05:53:03;156494.97;;;17.57;100.00
38852;BME280;24605;50.092;9.182;2023-07-16T05:55:29;156476.66;;;17.49;100.00
38852;BME280;24605;50.092;9.182;2023-07-16T05:57:56;156487.09;;;17.53;100.00
38852;BME280;24605;50.092;9.182;2023-07-16T06:00:22;156535.53;;;17.73;100.00
38852;BME280;24605;50.092;9.182;2023-07-16T06:02:49;156587.97;;;17.93;100.00
38852;BME280;24605;50.092;9.182;2023-07-16T06:05:17;156652.22;;;18.19;100.00
38852;BME280;24605;50.092;9.182;2023-07-16T06:07:44;156595.88;;;17.96;100.00
38852;BME280;24605;50.092;9.182;2023-07-16T06:10:11;156608.97;;;18.01;100.00
38852;BME280;24605;50.092;9.182;2023-07-16T06:12:37;156548.66;;;17.78;100.00
38852;BME280;24605;50.092;9.182;2023-07-16T06:15:05;156585.34;;;17.92;100.00
38852;BME280;24605;50.092;9.182;2023-07-16T06:17:31;156564.38;;;17.84;100.00
38852;BME280;24605;50.092;9.182;2023-07-16T06:19:58;156565.72;;;17.84;100.00
38852;BME280;24605;50.092;9.182;2023-07-16T06:22:25;156585.34;;;17.92;100.00
38852;BME280;24605;50.092;9.182;2023-07-16T06:24:52;156633.88;;;18.11;100.00
38852;BME280;24605;50.092;9.182;2023-07-16T06:27:18;156611.59;;;18.03;100.00
38852;BME280;24605;50.092;9.182;2023-07-16T06:29:45;156635.19;;;18.12;100.00
38852;BME280;24605;50.092;9.182;2023-07-16T06:32:11;156692.81;;;18.35;100.00
38852;BME280;24605;50.092;9.182;2023-07-16T06:34:38;156687.59;;;18.32;100.00
38852;BME280;24605;50.092;9.182;2023-07-16T06:37:05;156679.72;;;18.29;100.00
38852;BME280;24605;50.092;9.182;2023-07-16T06:39:33;156719.03;;;18.45;100.00
38852;BME280;24605;50.092;9.182;2023-07-16T06:42:00;156726.91;;;18.48;99.44
38852;BME280;24605;50.092;9.182;2023-07-16T06:44:26;156657.41;;;18.21;100.00
38852;BME280;24605;50.092;9.182;2023-07-16T06:46:53;156660.03;;;18.22;99.98
38852;BME280;24605;50.092;9.182;2023-07-16T06:49:19;156619.47;;;18.06;100.00
38852;BME280;24605;50.092;9.182;2023-07-16T06:51:46;156650.88;;;18.18;100.00
38852;BME280;24605;50.092;9.182;2023-07-16T06:54:13;156681.00;;;18.30;97.18
38852;BME280;24605;50.092;9.182;2023-07-16T06:56:41;156645.63;;;18.16;100.00
38852;BME280;24605;50.092;9.182;2023-07-16T06:59:07;156627.28;;;18.09;100.00
38852;BME280;24605;50.092;9.182;2023-07-16T07:01:34;156678.44;;;18.29;97.00
38852;BME280;24605;50.092;9.182;2023-07-16T07:04:00;156687.59;;;18.32;97.06
38852;BME280;24605;50.092;9.182;2023-07-16T07:06:27;156690.19;;;18.33;95.64
38852;BME280;24605;50.092;9.182;2023-07-16T07:08:53;156678.44;;;18.29;96.25
38852;BME280;24605;50.092;9.182;2023-07-16T07:11:20;156683.63;;;18.31;92.16
38852;BME280;24605;50.092;9.182;2023-07-16T07:13:48;156606.34;;;18.00;93.00
38852;BME280;24605;50.092;9.182;2023-07-16T07:16:15;156595.88;;;17.96;94.69
38852;BME280;24605;50.092;9.182;2023-07-16T07:18:42;156683.63;;;18.31;93.74
38852;BME280;24605;50.092;9.182;2023-07-16T07:21:09;156742.59;;;18.54;91.82
38852;BME280;24605;50.092;9.182;2023-07-16T07:23:35;156681.00;;;18.30;89.05
38852;BME280;24605;50.092;9.182;2023-07-16T07:26:02;156684.97;;;18.31;90.37
38852;BME280;24605;50.092;9.182;2023-07-16T07:28:28;156802.88;;;18.78;90.37
38852;BME280;24605;50.092;9.182;2023-07-16T07:30:56;156800.31;;;18.77;87.18
38852;BME280;24605;50.092;9.182;2023-07-16T07:33:23;156823.91;;;18.86;86.82
38852;BME280;24605;50.092;9.182;2023-07-16T07:35:53;156855.38;;;18.99;86.64
38852;BME280;24605;50.092;9.182;2023-07-16T07:38:19;156834.34;;;18.90;87.55
38852;BME280;24605;50.092;9.182;2023-07-16T07:40:46;156884.22;;;19.10;85.95
38852;BME280;24605;50.092;9.182;2023-07-16T07:43:12;156940.59;;;19.32;85.14
38852;BME280;24605;50.092;9.182;2023-07-16T07:45:39;157020.59;;;19.64;84.31
38852;BME280;24605;50.092;9.182;2023-07-16T07:48:06;157023.22;;;19.65;81.24
38852;BME280;24605;50.092;9.182;2023-07-16T07:50:33;156979.94;;;19.48;82.09
38852;BME280;24605;50.092;9.182;2023-07-16T07:52:59;157008.78;;;19.59;83.27
38852;BME280;24605;50.092;9.182;2023-07-16T07:55:26;156917.00;;;19.23;81.28
38852;BME280;24605;50.092;9.182;2023-07-16T07:57:52;156994.38;;;19.53;83.58
38852;BME280;24605;50.092;9.182;2023-07-16T08:00:19;157032.41;;;19.68;82.08
38852;BME280;24605;50.092;9.182;2023-07-16T08:02:45;156966.84;;;19.42;81.83
38852;BME280;24605;50.092;9.182;2023-07-16T08:05:13;156935.34;;;19.30;82.58
38852;BME280;24605;50.092;9.182;2023-07-16T08:07:40;156949.78;;;19.36;81.84
38852;BME280;24605;50.092;9.182;2023-07-16T08:10:06;156987.81;;;19.51;80.85
38852;BME280;24605;50.092;9.182;2023-07-16T08:12:33;156978.66;;;19.47;82.12
38852;BME280;24605;50.092;9.182;2023-07-16T08:14:59;157017.97;;;19.63;81.44
38852;BME280;24605;50.092;9.182;2023-07-16T08:17:26;157086.22;;;19.90;80.32
38852;BME280;24605;50.092;9.182;2023-07-16T08:19:52;157147.88;;;20.14;77.27
38852;BME280;24605;50.092;9.182;2023-07-16T08:22:21;157238.38;;;20.49;75.77
38852;BME280;24605;50.092;9.182;2023-07-16T08:24:50;157083.59;;;19.88;76.40
38852;BME280;24605;50.092;9.182;2023-07-16T08:27:17;157035.03;;;19.69;75.44
38852;BME280;24605;50.092;9.182;2023-07-16T08:29:44;156937.97;;;19.31;77.68
38852;BME280;24605;50.092;9.182;2023-07-16T08:32:10;156941.91;;;19.33;77.72
38852;BME280;24605;50.092;9.182;2023-07-16T08:34:37;156911.75;;;19.21;77.99
38852;BME280;24605;50.092;9.182;2023-07-16T08:37:04;156821.28;;;18.85;79.02
38852;BME280;24605;50.092;9.182;2023-07-16T08:39:32;156837.00;;;18.91;80.02
38852;BME280;24605;50.092;9.182;2023-07-16T08:41:58;156819.94;;;18.85;78.74
38852;BME280;24605;50.092;9.182;2023-07-16T08:44:25;156801.59;;;18.77;79.91
38852;BME280;24605;50.092;9.182;2023-07-16T08:46:52;156910.47;;;19.20;79.22
38852;BME280;24605;50.092;9.182;2023-07-16T08:49:19;156972.03;;;19.45;77.87
38852;BME280;24605;50.092;9.182;2023-07-16T08:51:49;157028.44;;;19.67;75.76
38852;BME280;24605;50.092;9.182;2023-07-16T08:54:16;157057.31;;;19.78;72.83
38852;BME280;24605;50.092;9.182;2023-07-16T08:56:44;157020.59;;;19.64;73.16
38852;BME280;24605;50.092;9.182;2023-07-16T08:59:12;156944.53;;;19.34;73.88
38852;BME280;24605;50.092;9.182;2023-07-16T09:01:39;157041.56;;;19.72;73.72
38852;BME280;24605;50.092;9.182;2023-07-16T09:04:05;156994.38;;;19.53;71.73
38852;BME280;24605;50.092;9.182;2023-07-16T09:06:32;157044.22;;;19.73;73.23
38852;BME280;24605;50.092;9.182;2023-07-16T09:08:58;157057.31;;;19.78;71.37
38852;BME280;24605;50.092;9.182;2023-07-16T09:11:25;157059.94;;;19.79;70.26
38852;BME280;24605;50.092;9.182;2023-07-16T09:13:53;157025.81;;;19.66;70.32
38852;BME280;24605;50.092;9.182;2023-07-16T09:16:20;157031.06;;;19.68;70.96
38852;BME280;24605;50.092;9.182;2023-07-16T09:18:47;157073.03;;;19.84;69.81
38852;BME280;24605;50.092;9.182;2023-07-16T09:21:13;157096.69;;;19.94;70.84
38852;BME280;24605;50.092;9.182;2023-07-16T09:23:41;157054.69;;;19.77;69.24
38852;BME280;24605;50.092;9.182;2023-07-16T09:26:08;157090.13;;;19.91;68.91
38852;BME280;24605;50.092;9.182;2023-07-16T09:28:34;157054.69;;;19.77;67.63
38852;BME280;24605;50.092;9.182;2023-07-16T09:31:06;157096.69;;;19.94;67.88
38852;BME280;24605;50.092;9.182;2023-07-16T09:33:34;157130.81;;;20.07;66.19
38852;BME280;24605;50.092;9.182;2023-07-16T09:36:00;157074.41;;;19.85;67.30
38852;BME280;24605;50.092;9.182;2023-07-16T09:38:28;156985.19;;;19.50;67.85
38852;BME280;24605;50.092;9.182;2023-07-16T09:41:01;157025.81;;;19.66;67.33
38852;BME280;24605;50.092;9.182;2023-07-16T09:43:28;157145.25;;;20.13;67.90
38852;BME280;24605;50.092;9.182;2023-07-16T09:45:55;157193.78;;;20.32;67.89
38852;BME280;24605;50.092;9.182;2023-07-16T09:48:23;157293.50;;;20.71;66.01
38852;BME280;24605;50.092;9.182;2023-07-16T09:50:50;157319.78;;;20.81;65.70
38852;BME280;24605;50.092;9.182;2023-07-16T09:53:19;157468.09;;;21.40;64.18
38852;BME280;24605;50.092;9.182;2023-07-16T09:55:46;157318.47;;;20.81;64.39
38852;BME280;24605;50.092;9.182;2023-07-16T09:58:14;157325.03;;;20.84;65.86
38852;BME280;24605;50.092;9.182;2023-07-16T10:00:44;157350.00;;;20.93;65.49
38852;BME280;24605;50.092;9.182;2023-07-16T10:03:12;157294.81;;;20.72;64.73
38852;BME280;24605;50.092;9.182;2023-07-16T10:05:43;157259.38;;;20.58;66.14
38852;BME280;24605;50.092;9.182;2023-07-16T10:08:16;157296.09;;;20.72;65.91
38852;BME280;24605;50.092;9.182;2023-07-16T10:10:43;157276.44;;;20.64;64.83
38852;BME280;24605;50.092;9.182;2023-07-16T10:13:12;157298.78;;;20.73;65.42
38852;BME280;24605;50.092;9.182;2023-07-16T10:15:39;157296.09;;;20.72;66.03
38852;BME280;24605;50.092;9.182;2023-07-16T10:18:23;157311.94;;;20.78;65.25
38852;BME280;24605;50.092;9.182;2023-07-16T10:20:51;157350.00;;;20.93;64.97
38852;BME280;24605;50.092;9.182;2023-07-16T10:23:18;157458.91;;;21.36;63.26
38852;BME280;24605;50.092;9.182;2023-07-16T10:25:58;157514.13;;;21.58;62.94
38852;BME280;24605;50.092;9.182;2023-07-16T10:28:24;157533.78;;;21.66;62.50
38852;BME280;24605;50.092;9.182;2023-07-16T10:30:51;157669.06;;;22.19;55.46
38852;BME280;24605;50.092;9.182;2023-07-16T10:33:17;157600.78;;;21.92;54.56
38852;BME280;24605;50.092;9.182;2023-07-16T10:35:45;157455.00;;;21.35;57.94
38852;BME280;24605;50.092;9.182;2023-07-16T10:38:13;157566.59;;;21.79;55.25
38852;BME280;24605;50.092;9.182;2023-07-16T10:40:40;157515.41;;;21.58;53.18
38852;BME280;24605;50.092;9.182;2023-07-16T10:43:07;157542.97;;;21.69;51.88
38852;BME280;24605;50.092;9.182;2023-07-16T10:45:33;157645.44;;;22.10;51.87
38852;BME280;24605;50.092;9.182;2023-07-16T10:48:00;157632.25;;;22.04;50.64
38852;BME280;24605;50.092;9.182;2023-07-16T10:50:27;157590.25;;;21.88;52.49
38852;BME280;24605;50.092;9.182;2023-07-16T10:52:56;157531.16;;;21.65;52.54
38852;BME280;24605;50.092;9.182;2023-07-16T10:55:26;157483.88;;;21.46;53.29
38852;BME280;24605;50.092;9.182;2023-07-16T10:57:53;157473.34;;;21.42;54.06
38852;BME280;24605;50.092;9.182;2023-07-16T11:00:21;157340.75;;;20.90;53.05
38852;BME280;24605;50.092;9.182;2023-07-16T11:02:49;157392.00;;;21.10;54.45
38852;BME280;24605;50.092;9.182;2023-07-16T11:05:17;157458.91;;;21.36;51.91
38852;BME280;24605;50.092;9.182;2023-07-16T11:07:45;157500.91;;;21.53;52.06
38852;BME280;24605;50.092;9.182;2023-07-16T11:10:11;157514.13;;;21.58;50.74
38852;BME280;24605;50.092;9.182;2023-07-16T11:12:41;157571.88;;;21.81;50.96
38852;BME280;24605;50.092;9.182;2023-07-16T11:15:08;157583.69;;;21.85;50.52
38852;BME280;24605;50.092;9.182;2023-07-16T11:17:37;157571.88;;;21.81;49.74
38852;BME280;24605;50.092;9.182;2023-07-16T11:20:07;157578.44;;;21.83;49.90
38852;BME280;24605;50.092;9.182;2023-07-16T11:22:37;157542.97;;;21.69;49.25
38852;BME280;24605;50.092;9.182;2023-07-16T11:25:11;157482.53;;;21.45;50.73
38852;BME280;24605;50.092;9.182;2023-07-16T11:27:41;157486.47;;;21.47;49.90
38852;BME280;24605;50.092;9.182;2023-07-16T11:30:09;157600.78;;;21.92;49.41
38852;BME280;24605;50.092;9.182;2023-07-16T11:32:37;157598.16;;;21.91;49.24
38852;BME280;24605;50.092;9.182;2023-07-16T11:35:05;157673.00;;;22.20;48.72
38852;BME280;24605;50.092;9.182;2023-07-16T11:37:34;157625.72;;;22.02;48.05
38852;BME280;24605;50.092;9.182;2023-07-16T11:40:03;157708.47;;;22.34;48.09
38852;BME280;24605;50.092;9.182;2023-07-16T11:42:31;157789.94;;;22.66;47.81
38852;BME280;24605;50.092;9.182;2023-07-16T11:44:59;157837.25;;;22.85;47.00
38852;BME280;24605;50.092;9.182;2023-07-16T11:47:27;157859.59;;;22.94;46.44
38852;BME280;24605;50.092;9.182;2023-07-16T11:49:54;157881.91;;;23.03;45.92
38852;BME280;24605;50.092;9.182;2023-07-16T11:52:21;157796.56;;;22.69;43.21
38852;BME280;24605;50.092;9.182;2023-07-16T11:54:48;157648.06;;;22.11;44.71
38852;BME280;24605;50.092;9.182;2023-07-16T11:57:15;157659.88;;;22.15;46.39
38852;BME280;24605;50.092;9.182;2023-07-16T11:59:41;157607.34;;;21.95;46.43
38852;BME280;24605;50.092;9.182;2023-07-16T12:02:09;157646.72;;;22.10;45.76
38852;BME280;24605;50.092;9.182;2023-07-16T12:04:36;157595.50;;;21.90;45.45
38852;BME280;24605;50.092;9.182;2023-07-16T12:07:02;157533.78;;;21.66;46.25
38852;BME280;24605;50.092;9.182;2023-07-16T12:09:29;157632.25;;;22.04;45.06
38852;BME280;24605;50.092;9.182;2023-07-16T12:11:56;157696.63;;;22.30;44.33
38852;BME280;24605;50.092;9.182;2023-07-16T12:14:22;157830.69;;;22.82;45.01
38852;BME280;24605;50.092;9.182;2023-07-16T12:16:49;158010.81;;;23.53;42.47
38852;BME280;24605;50.092;9.182;2023-07-16T12:19:16;157998.97;;;23.49;42.55
38852;BME280;24605;50.092;9.182;2023-07-16T12:21:43;158006.81;;;23.52;41.16
38852;BME280;24605;50.092;9.182;2023-07-16T12:24:10;157992.34;;;23.46;41.06
38852;BME280;24605;50.092;9.182;2023-07-16T12:26:37;157988.44;;;23.44;41.68
38852;BME280;24605;50.092;9.182;2023-07-16T12:29:04;158031.84;;;23.61;40.90
38852;BME280;24605;50.092;9.182;2023-07-16T12:31:30;157937.19;;;23.24;41.93
38852;BME280;24605;50.092;9.182;2023-07-16T12:33:57;157938.47;;;23.25;41.80
38852;BME280;24605;50.092;9.182;2023-07-16T12:36:25;157934.53;;;23.23;40.22
38852;BME280;24605;50.092;9.182;2023-07-16T12:38:52;157846.44;;;22.89;39.98
38852;BME280;24605;50.092;9.182;2023-07-16T12:41:18;157874.06;;;22.99;40.48
38852;BME280;24605;50.092;9.182;2023-07-16T12:43:45;157870.09;;;22.98;40.82
38852;BME280;24605;50.092;9.182;2023-07-16T12:46:12;157870.09;;;22.98;41.00
38852;BME280;24605;50.092;9.182;2023-07-16T12:48:38;157929.28;;;23.21;41.27
38852;BME280;24605;50.092;9.182;2023-07-16T12:51:05;158008.16;;;23.52;39.72